Time;durP1;ratioP1;P1;durP2;ratioP2;P2;SDS_P1;SDS_P2;PMS_P1;PMS_P2;Temp;Humidity;BMP_temperature;BMP_pressure;BME280_temperature;BME280_humidity;BME280_pressure;Samples;Min_cycle;Max_cycle;Signal;HPM_P1;HPM_P2
2024/01/31 00:01:44;;;;;;;;;52.75;40.25;;;;;-146.67;37.42;76614.72;5081343;28;61989;-78
2024/01/31 00:04:09;;;;;;;;;43.00;38.75;;;;;-146.67;37.40;76610.72;5083128;28;62438;-79
2024/01/31 00:06:34;;;;;;;;;59.00;43.00;;;;;-146.67;37.36;76612.72;5081381;28;61913;-79
2024/01/31 00:09:00;;;;;;;;;57.25;43.75;;;;;-146.67;37.38;76610.72;5064706;28;61749;-79
2024/01/31 00:11:28;;;;;;;;;48.00;39.00;;;;;-146.67;37.52;76608.72;5064712;28;61945;-78
2024/01/31 00:13:55;;;;;;;;;57.50;44.75;;;;;-146.67;37.45;76600.72;5064736;28;62384;-79
2024/01/31 00:16:20;;;;;;;;;55.75;45.00;;;;;-146.67;37.66;76612.72;5082789;28;62878;-79
2024/01/31 00:18:45;;;;;;;;;52.50;41.50;;;;;-146.67;37.63;76606.72;5064895;28;61791;-79
2024/01/31 00:21:10;;;;;;;;;55.75;36.25;;;;;-146.67;37.65;76614.72;5082707;28;61910;-79
2024/01/31 00:23:36;;;;;;;;;61.00;46.25;;;;;-146.67;37.64;76614.72;5064983;28;62135;-78
2024/01/31 00:26:01;;;;;;;;;58.50;44.00;;;;;-146.67;37.80;76620.69;5064072;28;64121;-79
2024/01/31 00:28:27;;;;;;;;;49.50;42.00;;;;;-146.67;37.97;76622.69;5064974;28;61859;-79
2024/01/31 00:30:52;;;;;;;;;51.50;40.25;;;;;-146.67;37.95;76626.69;5082626;28;61926;-78
2024/01/31 00:33:18;;;;;;;;;50.25;41.00;;;;;-146.67;38.06;76618.69;5065396;28;61975;-79
2024/01/31 00:35:43;;;;;;;;;54.75;43.00;;;;;-146.67;37.90;76614.72;5082193;28;62910;-79
2024/01/31 00:38:09;;;;;;;;;51.00;41.00;;;;;-146.67;38.06;76614.72;5064699;28;61911;-79
2024/01/31 00:40:34;;;;;;;;;54.50;40.50;;;;;-146.67;38.00;76608.72;5082079;27;62133;-79
2024/01/31 00:42:59;;;;;;;;;57.00;42.50;;;;;-146.67;37.95;76606.72;5063664;28;61843;-78
2024/01/31 00:45:25;;;;;;;;;52.75;41.50;;;;;-146.67;38.06;76618.69;5064115;28;64644;-78
2024/01/31 00:47:50;;;;;;;;;38.75;34.50;;;;;-146.67;38.15;76626.69;5064566;28;61986;-79
2024/01/31 00:50:16;;;;;;;;;52.25;40.00;;;;;-146.67;38.25;76624.69;5064216;28;61770;-79
2024/01/31 00:52:41;;;;;;;;;52.50;40.50;;;;;-146.67;38.20;76626.69;5064794;28;62215;-79
2024/01/31 00:55:07;;;;;;;;;45.00;41.25;;;;;-146.67;38.25;76626.69;5062872;28;63650;-79
2024/01/31 00:57:32;;;;;;;;;49.75;42.50;;;;;-146.67;38.37;76636.69;5063778;28;61927;-79
2024/01/31 00:59:58;;;;;;;;;52.50;40.50;;;;;-146.67;38.42;76644.66;5081352;28;62026;-79
2024/01/31 01:02:23;;;;;;;;;47.25;39.50;;;;;-146.67;38.54;76640.69;5082601;28;61779;-79
2024/01/31 01:04:49;;;;;;;;;48.50;39.00;;;;;-146.67;38.42;76642.66;5086533;27;61826;-78
2024/01/31 01:07:14;;;;;;;;;61.00;42.50;;;;;-146.67;38.59;76644.66;5102593;27;61922;-80
2024/01/31 01:09:39;;;;;;;;;52.00;39.25;;;;;-146.67;38.59;76648.66;5084734;27;61870;-78
2024/01/31 01:12:05;;;;;;;;;44.00;37.50;;;;;-146.67;38.48;76644.66;5084234;27;61845;-79
2024/01/31 01:14:30;;;;;;;;;50.00;40.75;;;;;-146.67;38.53;76644.66;5100227;27;61762;-79
2024/01/31 01:16:56;;;;;;;;;48.00;39.75;;;;;-146.67;38.43;76640.69;5082510;28;61834;-79
2024/01/31 01:19:21;;;;;;;;;56.00;39.25;;;;;-146.67;38.49;76642.66;5081992;28;62069;-79
2024/01/31 01:21:47;;;;;;;;;46.50;40.50;;;;;-146.67;38.55;76640.69;5064129;28;62200;-79
2024/01/31 01:24:12;;;;;;;;;47.25;39.75;;;;;-146.67;38.47;76642.66;5081392;28;61985;-79
2024/01/31 01:26:41;;;;;;;;;44.75;37.00;;;;;-146.67;38.51;76638.69;5063461;28;61859;-78
2024/01/31 01:29:07;;;;;;;;;48.75;40.00;;;;;-146.67;38.61;76634.69;5080945;28;61880;-79
2024/01/31 01:31:33;;;;;;;;;53.00;37.25;;;;;-146.67;38.62;76630.69;5081994;28;61734;-79
2024/01/31 01:34:01;;;;;;;;;42.75;35.25;;;;;-146.67;38.49;76630.69;5081464;28;62846;-79
2024/01/31 01:36:26;;;;;;;;;41.50;36.50;;;;;-146.67;38.45;76642.66;5081829;28;61803;-79
2024/01/31 01:38:52;;;;;;;;;48.00;39.00;;;;;-146.67;38.60;76640.69;5082528;28;61864;-79
2024/01/31 01:41:17;;;;;;;;;45.50;37.75;;;;;-146.67;38.51;76636.69;5081503;27;61970;-79
2024/01/31 01:43:43;;;;;;;;;44.00;36.25;;;;;-146.67;38.31;76638.69;5081014;28;61899;-79
2024/01/31 01:46:11;;;;;;;;;38.25;36.25;;;;;-146.67;38.40;76634.69;5082095;28;62025;-79
2024/01/31 01:48:36;;;;;;;;;40.25;36.50;;;;;-146.67;38.30;76634.69;5063563;28;61821;-79
2024/01/31 01:51:02;;;;;;;;;35.25;31.25;;;;;-146.67;38.23;76636.69;5082276;28;61845;-79
2024/01/31 01:53:29;;;;;;;;;35.00;32.00;;;;;-146.67;38.08;76634.69;5062995;28;63753;-79
2024/01/31 01:55:55;;;;;;;;;32.00;30.25;;;;;-146.67;38.01;76640.69;5063067;28;61897;-79
2024/01/31 01:58:20;;;;;;;;;35.00;26.25;;;;;-146.67;37.96;76636.69;5062012;28;61993;-79
2024/01/31 02:00:46;;;;;;;;;27.75;23.75;;;;;-146.67;37.75;76636.69;5063483;28;61835;-79
2024/01/31 02:03:14;;;;;;;;;27.25;24.00;;;;;-146.67;37.64;76630.69;5060618;28;64993;-79
2024/01/31 02:05:44;;;;;;;;;24.00;21.00;;;;;-146.67;37.58;76622.69;5081230;28;61687;-79
2024/01/31 02:08:10;;;;;;;;;30.75;26.50;;;;;-146.67;37.36;76614.72;5084148;28;62127;-79
2024/01/31 02:10:35;;;;;;;;;24.25;22.25;;;;;-146.67;37.53;76620.69;5052782;28;62110;-79
2024/01/31 02:13:00;;;;;;;;;27.00;21.50;;;;;-146.67;37.62;76622.69;5060455;28;61879;-79
2024/01/31 02:15:26;;;;;;;;;25.25;21.00;;;;;-146.67;37.61;76624.69;5061021;28;61990;-78
2024/01/31 02:17:51;;;;;;;;;22.75;19.25;;;;;-146.67;37.60;76618.69;5080535;28;61912;-79
2024/01/31 02:20:16;;;;;;;;;23.50;19.25;;;;;-146.67;37.25;76630.69;5081770;28;61906;-79
2024/01/31 02:22:48;;;;;;;;;23.75;19.50;;;;;-146.67;37.33;76630.69;5080787;28;63138;-79
2024/01/31 02:25:14;;;;;;;;;20.25;19.00;;;;;-146.67;37.13;76632.69;5081538;28;62103;-79
2024/01/31 02:27:40;;;;;;;;;28.50;19.25;;;;;-146.67;37.12;76636.69;5081803;28;61992;-79
2024/01/31 02:30:09;;;;;;;;;16.50;16.50;;;;;-146.67;37.27;76632.69;5081694;28;62172;-79
2024/01/31 02:32:34;;;;;;;;;25.00;17.50;;;;;-146.67;37.09;76636.69;5080654;28;62991;-79
2024/01/31 02:35:00;;;;;;;;;19.00;17.25;;;;;-146.67;37.02;76640.69;5081473;28;61705;-79
2024/01/31 02:37:25;;;;;;;;;17.25;12.00;;;;;-146.67;36.90;76644.66;5082385;28;62182;-79
2024/01/31 02:39:50;;;;;;;;;16.50;14.00;;;;;-146.67;36.88;76650.66;5084888;28;61945;-78
2024/01/31 02:42:16;;;;;;;;;17.00;13.25;;;;;-146.67;37.02;76650.66;5083817;28;61790;-79
2024/01/31 02:44:41;;;;;;;;;19.50;17.25;;;;;-146.67;37.07;76654.66;5084178;28;62153;-79
2024/01/31 02:47:06;;;;;;;;;19.00;14.00;;;;;-146.67;37.00;76658.66;5066398;28;61867;-79
2024/01/31 02:49:32;;;;;;;;;16.00;14.25;;;;;-146.67;36.96;76650.66;5084835;28;62432;-79
2024/01/31 02:51:57;;;;;;;;;30.25;16.50;;;;;-146.67;36.77;76666.66;5084267;28;61822;-79
2024/01/31 02:54:23;;;;;;;;;16.25;14.25;;;;;-146.67;36.64;76668.63;5084246;28;61931;-79
2024/01/31 02:56:48;;;;;;;;;14.00;13.00;;;;;-146.67;36.74;76662.66;5083461;28;61759;-79
2024/01/31 02:59:13;;;;;;;;;16.75;15.25;;;;;-146.67;36.84;76664.66;5083313;28;61856;-78
2024/01/31 03:01:45;;;;;;;;;18.75;12.50;;;;;-146.67;36.52;76664.66;5082426;28;63492;-79
2024/01/31 03:04:11;;;;;;;;;16.50;14.50;;;;;-146.67;36.42;76660.66;5084761;28;61898;-79
2024/01/31 03:06:37;;;;;;;;;21.75;16.50;;;;;-146.67;36.59;76656.66;5084088;28;61975;-79
2024/01/31 03:09:03;;;;;;;;;20.75;16.25;;;;;-146.67;36.48;76654.66;5083168;28;61737;-79
2024/01/31 03:11:28;;;;;;;;;19.25;19.25;;;;;-146.67;36.63;76650.66;5083358;28;62070;-79
2024/01/31 03:13:53;;;;;;;;;23.25;18.00;;;;;-146.67;36.45;76652.66;5083888;28;62080;-78
2024/01/31 03:16:19;;;;;;;;;23.00;18.50;;;;;-146.67;36.61;76656.66;5065937;28;61768;-79
2024/01/31 03:18:44;;;;;;;;;18.75;18.75;;;;;-146.67;36.71;76654.66;5088117;27;62236;-79
2024/01/31 03:21:09;;;;;;;;;16.25;16.25;;;;;-146.67;36.61;76660.66;5104169;27;61933;-79
2024/01/31 03:23:35;;;;;;;;;19.50;15.25;;;;;-146.67;36.68;76658.66;5104488;27;62264;-79
2024/01/31 03:26:00;;;;;;;;;14.00;12.00;;;;;-146.67;36.48;76656.66;5104778;27;62269;-79
2024/01/31 03:28:25;;;;;;;;;20.50;17.00;;;;;-146.67;36.51;76650.66;5086135;27;62270;-80
2024/01/31 03:30:51;;;;;;;;;26.50;23.00;;;;;-146.67;36.60;76642.66;5098031;27;61758;-79
2024/01/31 03:33:16;;;;;;;;;25.75;21.75;;;;;-146.67;36.54;76644.66;5082842;28;61972;-79
2024/01/31 03:35:41;;;;;;;;;21.50;17.25;;;;;-146.67;36.56;76642.66;5065171;28;61881;-78
2024/01/31 03:38:08;;;;;;;;;18.50;18.50;;;;;-146.67;36.53;76638.69;5084008;28;61867;-78
2024/01/31 03:40:33;;;;;;;;;20.00;15.75;;;;;-146.67;36.51;76640.69;5065752;27;65387;-79
2024/01/31 03:42:59;;;;;;;;;14.25;12.75;;;;;-146.67;36.54;76640.69;5103472;27;61899;-79
2024/01/31 03:45:25;;;;;;;;;17.50;14.75;;;;;-146.67;36.40;76650.66;5086189;27;61791;-79
2024/01/31 03:47:51;;;;;;;;;17.50;16.00;;;;;-146.67;36.62;76650.66;5072108;28;61740;-79
2024/01/31 03:50:17;;;;;;;;;16.50;13.50;;;;;-146.67;36.66;76650.66;5083467;28;62009;-79
2024/01/31 03:52:42;;;;;;;;;15.50;13.75;;;;;-146.67;36.63;76652.66;5083194;28;61742;-79
2024/01/31 03:55:09;;;;;;;;;21.00;17.25;;;;;-146.67;36.60;76644.66;5083914;28;61662;-79
2024/01/31 03:57:34;;;;;;;;;14.00;13.50;;;;;-146.67;36.44;76652.66;5083667;28;62364;-79
2024/01/31 04:00:05;;;;;;;;;15.25;15.00;;;;;-146.67;36.47;76634.69;5064599;28;64742;-79
2024/01/31 04:02:30;;;;;;;;;18.50;16.00;;;;;-146.67;36.33;76632.69;5083628;28;62074;-79
2024/01/31 04:04:55;;;;;;;;;15.75;12.75;;;;;-146.67;36.17;76636.69;5065050;28;62148;-79
2024/01/31 04:07:20;;;;;;;;;14.50;14.25;;;;;-146.67;36.44;76644.66;5083618;28;62465;-79
2024/01/31 04:09:46;;;;;;;;;18.25;16.00;;;;;-146.67;36.52;76646.66;5081111;28;63075;-79
2024/01/31 04:12:11;;;;;;;;;24.50;16.75;;;;;-146.67;36.50;76654.66;5082615;28;61802;-79
2024/01/31 04:14:36;;;;;;;;;18.50;15.50;;;;;-146.67;36.49;76652.66;5065408;28;61683;-79
2024/01/31 04:17:02;;;;;;;;;15.25;14.00;;;;;-146.67;36.56;76648.66;5083309;28;61657;-79
2024/01/31 04:19:27;;;;;;;;;18.00;16.25;;;;;-146.67;36.44;76650.66;5082921;28;61809;-79
2024/01/31 04:21:53;;;;;;;;;18.25;15.25;;;;;-146.67;36.45;76646.66;5082765;28;62081;-79
2024/01/31 04:24:19;;;;;;;;;15.50;14.00;;;;;-146.67;36.44;76642.66;5065162;28;62115;-79
2024/01/31 04:26:44;;;;;;;;;19.75;15.50;;;;;-146.67;36.21;76658.66;5083072;28;62080;-79
2024/01/31 04:29:10;;;;;;;;;23.00;16.50;;;;;-146.67;36.22;76666.66;5064243;28;63539;-79
2024/01/31 04:31:35;;;;;;;;;17.75;15.25;;;;;-146.67;36.58;76662.66;5083053;28;61831;-79
2024/01/31 04:34:04;;;;;;;;;22.50;19.00;;;;;-146.67;36.62;76658.66;5064722;28;61909;-79
2024/01/31 04:36:30;;;;;;;;;16.00;15.00;;;;;-146.67;36.11;76650.66;5083479;28;61910;-78
2024/01/31 04:38:55;;;;;;;;;19.50;14.50;;;;;-146.67;36.19;76652.66;5064048;28;63629;-79
2024/01/31 04:41:20;;;;;;;;;17.00;16.00;;;;;-146.67;36.48;76644.66;5082391;27;62235;-78
2024/01/31 04:43:46;;;;;;;;;18.00;15.50;;;;;-146.67;36.12;76638.69;5061169;28;62015;-79
2024/01/31 04:46:14;;;;;;;;;14.25;12.50;;;;;-146.67;36.57;76642.66;5077036;28;61767;-79
2024/01/31 04:48:40;;;;;;;;;19.00;17.75;;;;;-146.67;36.38;76620.69;5071227;27;61827;-78
2024/01/31 04:51:05;;;;;;;;;16.50;12.00;;;;;-146.67;36.16;76620.69;5062123;28;61728;-78
2024/01/31 04:53:31;;;;;;;;;14.50;13.00;;;;;-146.67;36.06;76638.69;5062757;28;61814;-78
2024/01/31 04:55:56;;;;;;;;;14.50;14.50;;;;;-146.67;36.40;76628.69;5077786;28;62106;-78
2024/01/31 04:58:22;;;;;;;;;18.50;15.00;;;;;-146.67;36.28;76616.69;5062001;28;62752;-78
2024/01/31 05:00:47;;;;;;;;;16.50;13.75;;;;;-146.67;36.13;76616.69;5061351;28;61961;-78
2024/01/31 05:03:13;;;;;;;;;19.75;13.25;;;;;-146.67;36.14;76608.72;5069440;28;62053;-78
2024/01/31 05:05:38;;;;;;;;;17.75;13.50;;;;;-146.67;36.16;76608.72;5064460;28;61838;-78
2024/01/31 05:08:05;;;;;;;;;17.00;13.00;;;;;-146.67;35.75;76614.72;5059759;28;64731;-79
2024/01/31 05:10:33;;;;;;;;;11.50;10.00;;;;;-146.67;35.63;76624.69;5060600;28;61967;-78
2024/01/31 05:12:59;;;;;;;;;13.75;10.75;;;;;-146.67;35.67;76624.69;5061817;28;61827;-79
2024/01/31 05:15:25;;;;;;;;;15.00;11.25;;;;;-146.67;35.74;76616.69;5071462;28;62209;-79
2024/01/31 05:17:50;;;;;;;;;13.00;11.25;;;;;-146.67;35.46;76606.72;5081960;27;63191;-79
2024/01/31 05:20:16;;;;;;;;;13.25;8.50;;;;;-146.67;35.24;76628.69;5096168;27;62411;-78
2024/01/31 05:22:41;;;;;;;;;14.00;9.00;;;;;-146.67;35.40;76630.69;5062401;28;61929;-79
2024/01/31 05:25:07;;;;;;;;;10.75;7.25;;;;;-146.67;35.80;76624.69;5061696;28;62103;-79
2024/01/31 05:27:33;;;;;;;;;10.50;10.50;;;;;-146.67;35.95;76630.69;5061854;28;61934;-79
2024/01/31 05:29:58;;;;;;;;;12.50;9.75;;;;;-146.67;35.75;76630.69;5060600;28;61981;-79
2024/01/31 05:32:24;;;;;;;;;14.25;11.00;;;;;-146.67;35.91;76628.69;5060269;28;61968;-79
2024/01/31 05:34:49;;;;;;;;;14.25;8.50;;;;;-146.67;35.95;76624.69;5061017;28;61842;-79
2024/01/31 05:37:14;;;;;;;;;8.50;7.50;;;;;-146.67;35.80;76618.69;5060761;28;61919;-79
2024/01/31 05:39:40;;;;;;;;;9.00;7.00;;;;;-146.67;35.50;76634.69;5061236;28;62102;-78
2024/01/31 05:42:05;;;;;;;;;8.00;7.00;;;;;-146.67;35.78;76626.69;5059098;28;62136;-78
2024/01/31 05:44:31;;;;;;;;;12.00;7.00;;;;;-146.67;35.89;76624.69;5078842;28;62142;-79
2024/01/31 05:46:56;;;;;;;;;8.75;6.50;;;;;-146.67;35.67;76614.72;5081653;28;61962;-79
2024/01/31 05:49:21;;;;;;;;;8.75;6.75;;;;;-146.67;35.55;76606.72;5072156;27;61987;-79
2024/01/31 05:51:47;;;;;;;;;9.25;8.00;;;;;-146.67;35.44;76602.72;5102264;27;62009;-79
2024/01/31 05:54:12;;;;;;;;;13.00;7.50;;;;;-146.67;35.61;76606.72;5084114;27;61738;-79
2024/01/31 05:56:38;;;;;;;;;11.25;8.25;;;;;-146.67;35.38;76602.72;5093734;27;62883;-79
2024/01/31 05:59:03;;;;;;;;;11.25;8.50;;;;;-146.67;35.33;76598.72;5062706;28;61756;-79
2024/01/31 06:01:29;;;;;;;;;7.25;6.50;;;;;-146.67;34.89;76604.72;5080781;28;62007;-79
2024/01/31 06:03:54;;;;;;;;;9.50;6.00;;;;;-146.67;35.38;76612.72;5063166;28;62096;-79
2024/01/31 06:06:19;;;;;;;;;10.50;7.50;;;;;-146.67;35.38;76604.72;5061790;28;64827;-78
2024/01/31 06:08:45;;;;;;;;;8.50;7.00;;;;;-146.67;35.29;76624.69;5080487;28;61914;-79
2024/01/31 06:11:10;;;;;;;;;11.00;5.00;;;;;-146.67;35.29;76632.69;5082121;28;62239;-79
2024/01/31 06:13:36;;;;;;;;;6.00;6.00;;;;;-146.67;35.49;76634.69;5084460;28;62262;-79
2024/01/31 06:16:02;;;;;;;;;6.00;6.00;;;;;-146.67;34.93;76652.66;5066200;28;64861;-78
2024/01/31 06:18:29;;;;;;;;;9.00;6.75;;;;;-146.67;35.38;76670.63;5066560;28;62242;-78
2024/01/31 06:20:54;;;;;;;;;4.00;4.00;;;;;-146.67;35.58;76662.66;5067043;28;61982;-79
2024/01/31 06:23:20;;;;;;;;;11.50;7.00;;;;;-146.67;34.93;76660.66;5084867;28;62056;-79
2024/01/31 06:25:46;;;;;;;;;6.00;3.00;;;;;-146.67;34.96;76678.63;5084420;28;62940;-79
2024/01/31 06:28:11;;;;;;;;;9.25;7.00;;;;;-146.67;35.38;76680.63;5074752;28;62198;-79
2024/01/31 06:30:48;;;;;;;;;6.00;6.00;;;;;-146.67;35.47;76678.63;5072500;28;61794;-78
2024/01/31 06:33:14;;;;;;;;;7.25;5.50;;;;;-146.67;35.55;76674.63;5074670;27;62065;-79
2024/01/31 06:35:42;;;;;;;;;7.00;6.00;;;;;-146.67;35.58;76678.63;5063311;28;65098;-78
2024/01/31 06:38:09;;;;;;;;;15.00;11.25;;;;;-146.67;35.35;76688.63;5083804;27;62072;-78
2024/01/31 06:40:36;;;;;;;;;12.25;12.00;;;;;-146.67;35.63;76690.63;5065226;28;62405;-78
2024/01/31 06:43:02;;;;;;;;;12.00;11.00;;;;;-146.67;35.78;76696.59;5082602;27;61884;-81
2024/01/31 06:45:27;;;;;;;;;19.00;15.75;;;;;-146.67;35.67;76702.59;5082710;27;62106;-79
2024/01/31 06:47:57;;;;;;;;;13.25;11.25;;;;;-146.67;35.83;76708.59;5082173;27;62029;-79
2024/01/31 06:50:23;;;;;;;;;14.25;13.00;;;;;-146.67;35.96;76710.59;5081932;28;62123;-80
2024/01/31 06:52:48;;;;;;;;;21.00;13.50;;;;;-146.67;35.66;76704.59;5082241;27;62122;-78
2024/01/31 06:55:14;;;;;;;;;12.50;11.00;;;;;-146.67;35.87;76704.59;5080942;27;61988;-79
2024/01/31 06:57:40;;;;;;;;;16.50;11.00;;;;;-146.67;35.89;76714.59;5072976;28;61945;-79
2024/01/31 07:00:06;;;;;;;;;12.50;10.50;;;;;-146.67;35.85;76720.56;5083212;28;61889;-79
2024/01/31 07:02:32;;;;;;;;;13.25;11.75;;;;;-146.67;35.84;76726.56;5068031;28;62040;-80
2024/01/31 07:04:57;;;;;;;;;21.75;13.25;;;;;-146.67;35.78;76732.56;5082900;28;61998;-79
2024/01/31 07:07:22;;;;;;;;;10.50;9.50;;;;;-146.67;35.84;76738.56;5081870;28;62015;-79
2024/01/31 07:09:54;;;;;;;;;10.75;8.00;;;;;-146.67;35.95;76734.56;5082547;28;61843;-79
2024/01/31 07:12:19;;;;;;;;;14.25;12.00;;;;;-146.67;36.01;76738.56;5081219;28;61869;-79
2024/01/31 07:14:45;;;;;;;;;20.75;11.25;;;;;-146.67;35.97;76738.56;5064701;28;63760;-81
2024/01/31 07:17:10;;;;;;;;;16.75;13.00;;;;;-146.67;35.95;76740.56;5082529;28;61818;-78
2024/01/31 07:19:36;;;;;;;;;16.75;14.75;;;;;-146.67;35.99;76754.53;5086421;28;61776;-78
2024/01/31 07:22:01;;;;;;;;;12.00;12.00;;;;;-146.67;36.15;76758.53;5067298;28;61766;-77
2024/01/31 07:24:29;;;;;;;;;10.75;7.75;;;;;-146.67;36.16;76772.50;5065438;28;62229;-78
2024/01/31 07:26:55;;;;;;;;;12.25;11.00;;;;;-146.67;36.20;76776.50;5065200;28;61991;-78
2024/01/31 07:29:20;;;;;;;;;9.50;9.50;;;;;-146.67;36.45;76782.50;5065530;28;61982;-78
2024/01/31 07:31:46;;;;;;;;;15.75;12.50;;;;;-146.67;36.41;76792.50;5083283;28;61799;-78
2024/01/31 07:34:11;;;;;;;;;14.00;10.75;;;;;-146.67;36.27;76786.50;5082724;28;61848;-78
2024/01/31 07:36:36;;;;;;;;;14.25;9.50;;;;;-146.67;36.34;76792.50;5083040;28;61779;-78
2024/01/31 07:39:04;;;;;;;;;11.00;8.00;;;;;-146.67;36.43;76794.50;5082804;27;62287;-78
2024/01/31 07:41:30;;;;;;;;;10.25;10.00;;;;;-146.67;36.44;76798.47;5065045;28;61936;-78
2024/01/31 07:43:56;;;;;;;;;10.25;6.75;;;;;-146.67;36.56;76790.50;5081017;28;62852;-77
2024/01/31 07:46:21;;;;;;;;;17.75;11.00;;;;;-146.67;36.08;76792.50;5081029;28;61909;-78
2024/01/31 07:48:46;;;;;;;;;11.75;10.75;;;;;-146.67;36.22;76780.50;5082612;28;61833;-78
2024/01/31 07:51:12;;;;;;;;;8.00;8.00;;;;;-146.67;36.25;76772.50;5063934;28;62120;-77
2024/01/31 07:53:38;;;;;;;;;21.00;16.00;;;;;-146.67;36.20;76756.53;5081396;28;62941;-77
2024/01/31 07:56:04;;;;;;;;;18.25;11.50;;;;;-146.67;36.29;76740.56;5081942;28;61828;-77
2024/01/31 07:58:30;;;;;;;;;14.25;12.50;;;;;-146.67;36.32;76732.56;5082718;28;62326;-78
2024/01/31 08:00:56;;;;;;;;;22.75;14.50;;;;;-146.67;36.31;76728.56;5082578;28;61876;-77
2024/01/31 08:03:21;;;;;;;;;17.50;14.25;;;;;-146.67;36.35;76724.56;5080976;28;63405;-77
2024/01/31 08:05:46;;;;;;;;;22.25;16.00;;;;;-146.67;36.23;76732.56;5082804;28;61951;-78
2024/01/31 08:08:12;;;;;;;;;16.50;14.00;;;;;-146.67;36.54;76734.56;5082812;28;61762;-77
2024/01/31 08:10:38;;;;;;;;;17.75;14.25;;;;;-146.67;36.57;76726.56;5064940;28;62160;-77
2024/01/31 08:13:04;;;;;;;;;16.75;14.75;;;;;-146.67;36.40;76722.56;5080282;28;63919;-77
2024/01/31 08:15:31;;;;;;;;;12.00;7.25;;;;;-146.67;36.66;76732.56;5065027;28;61870;-77
2024/01/31 08:17:57;;;;;;;;;16.75;16.00;;;;;-146.67;36.53;76722.56;5081181;28;62072;-77
2024/01/31 08:20:22;;;;;;;;;17.75;14.00;;;;;-146.67;36.54;76732.56;5082964;28;61804;-78
2024/01/31 08:22:48;;;;;;;;;24.75;21.50;;;;;-146.67;36.42;76744.53;5063648;28;64262;-78
2024/01/31 08:25:13;;;;;;;;;24.50;21.00;;;;;-146.67;36.64;76728.56;5063796;28;62081;-77
2024/01/31 08:27:38;;;;;;;;;29.75;22.00;;;;;-146.67;36.53;76708.59;5082385;28;62045;-77
2024/01/31 08:30:05;;;;;;;;;26.25;21.50;;;;;-146.67;36.42;76712.59;5081492;28;61763;-78
2024/01/31 08:32:34;;;;;;;;;33.00;26.00;;;;;-146.67;36.42;76732.56;5080227;28;63689;-77
2024/01/31 08:34:59;;;;;;;;;31.00;27.25;;;;;-146.67;36.60;76732.56;5082616;28;62124;-78
2024/01/31 08:37:25;;;;;;;;;31.25;27.25;;;;;-146.67;36.43;76732.56;5064069;28;61868;-77
2024/01/31 08:39:50;;;;;;;;;26.50;22.75;;;;;-146.67;36.55;76718.56;5063546;28;61922;-78
2024/01/31 08:42:15;;;;;;;;;27.25;22.25;;;;;-146.67;36.31;76696.59;5080588;28;62754;-78
2024/01/31 08:44:41;;;;;;;;;27.50;24.25;;;;;-146.67;36.05;76680.63;5081744;28;61754;-78
2024/01/31 08:47:06;;;;;;;;;27.00;23.75;;;;;-146.67;36.20;76666.66;5063507;28;62113;-78
2024/01/31 08:49:32;;;;;;;;;26.50;22.50;;;;;-146.67;36.11;76650.66;5064247;28;62141;-78
2024/01/31 08:51:57;;;;;;;;;24.25;21.25;;;;;-146.67;36.06;76638.69;5063310;28;63850;-78
2024/01/31 08:54:22;;;;;;;;;26.25;21.75;;;;;-146.67;35.97;76624.69;5082029;27;61812;-78
2024/01/31 08:56:48;;;;;;;;;33.75;21.00;;;;;-146.67;36.12;76612.72;5066044;28;61712;-78
2024/01/31 08:59:13;;;;;;;;;22.50;20.25;;;;;-146.67;35.99;76600.72;5080492;28;61811;-78
2024/01/31 09:01:48;;;;;;;;;21.75;17.50;;;;;-146.67;35.78;76592.72;5063159;28;63443;-78
2024/01/31 09:04:13;;;;;;;;;24.00;18.75;;;;;-146.67;35.69;76596.72;5082176;28;61825;-78
2024/01/31 09:06:42;;;;;;;;;20.25;18.25;;;;;-146.67;35.58;76596.72;5082182;28;61870;-78
2024/01/31 09:09:08;;;;;;;;;20.50;18.00;;;;;-146.67;35.47;76588.75;5082211;28;61862;-78
2024/01/31 09:11:33;;;;;;;;;21.50;17.75;;;;;-146.67;35.59;76572.75;5081103;28;62124;-78
2024/01/31 09:14:02;;;;;;;;;21.50;18.00;;;;;-146.67;35.69;76562.78;5082155;28;61710;-78
2024/01/31 09:16:28;;;;;;;;;30.00;28.50;;;;;-146.67;35.66;76556.78;5062886;28;61959;-78
2024/01/31 09:18:53;;;;;;;;;37.75;22.50;;;;;-146.67;35.85;76548.78;5063956;28;61789;-78
2024/01/31 09:21:27;;;;;;;;;29.25;21.75;;;;;-146.67;36.39;76534.81;5078935;28;63484;-78
2024/01/31 09:23:53;;;;;;;;;27.00;23.75;;;;;-146.67;35.97;76510.84;5081568;28;61736;-79
2024/01/31 09:26:18;;;;;;;;;38.25;28.00;;;;;-146.67;36.08;76504.84;5081926;28;61898;-80
2024/01/31 09:28:43;;;;;;;;;27.75;25.00;;;;;-146.67;35.59;76484.88;5081972;28;61699;-80
2024/01/31 09:31:09;;;;;;;;;47.00;33.00;;;;;-146.67;35.42;76478.88;5062539;28;63453;-79
2024/01/31 09:33:34;;;;;;;;;42.25;26.75;;;;;-146.67;35.44;76462.91;5063105;28;61772;-79
2024/01/31 09:35:59;;;;;;;;;38.00;27.75;;;;;-146.67;35.28;76450.91;5080534;28;61818;-80
2024/01/31 09:38:26;;;;;;;;;35.75;30.25;;;;;-146.67;35.44;76434.94;5081366;28;61786;-80
2024/01/31 09:40:52;;;;;;;;;45.50;29.25;;;;;-146.67;35.38;76418.97;5081180;28;61838;-80
2024/01/31 09:43:19;;;;;;;;;29.75;24.50;;;;;-146.67;35.21;76400.97;5080756;28;62453;-80
2024/01/31 09:45:47;;;;;;;;;28.00;27.25;;;;;-146.67;35.20;76381.00;5081472;28;61701;-80
2024/01/31 09:48:14;;;;;;;;;22.75;20.50;;;;;-146.67;35.18;76371.03;5067324;28;61767;-80
2024/01/31 09:50:39;;;;;;;;;10.25;10.00;;;;;-146.67;35.55;76351.03;5065845;28;63698;-80
2024/01/31 09:53:06;;;;;;;;;14.25;11.25;;;;;-146.67;35.45;76337.06;5084978;28;62324;-80
2024/01/31 09:55:34;;;;;;;;;12.50;4.00;;;;;-146.67;35.49;76333.06;5067461;28;61966;-79
2024/01/31 09:58:02;;;;;;;;;8.25;8.25;;;;;-146.67;35.68;76325.06;5067025;28;62053;-79
2024/01/31 10:00:28;;;;;;;;;15.75;11.25;;;;;-146.67;35.53;76317.09;5065184;28;65044;-80
2024/01/31 10:02:53;;;;;;;;;8.50;7.25;;;;;-146.67;35.44;76311.09;5085270;28;61876;-80
2024/01/31 10:05:18;;;;;;;;;14.00;8.50;;;;;-146.67;35.39;76289.13;5066679;28;62054;-80
2024/01/31 10:07:44;;;;;;;;;14.00;11.00;;;;;-146.67;35.41;76279.13;5085700;28;61771;-80
2024/01/31 10:10:09;;;;;;;;;13.25;8.25;;;;;-146.67;35.36;76265.16;5084360;28;61929;-80
2024/01/31 10:12:36;;;;;;;;;15.00;10.00;;;;;-146.67;35.45;76257.16;5065495;28;61927;-80
2024/01/31 10:15:02;;;;;;;;;18.25;14.50;;;;;-146.67;35.41;76255.16;5084161;28;61769;-80
2024/01/31 10:17:28;;;;;;;;;10.25;8.00;;;;;-146.67;35.43;76259.16;5084797;28;61796;-80
2024/01/31 10:19:53;;;;;;;;;12.50;11.00;;;;;-146.67;35.53;76255.16;5084262;28;61907;-79
2024/01/31 10:22:19;;;;;;;;;17.25;11.25;;;;;-146.67;35.58;76263.16;5079663;27;62054;-79
2024/01/31 10:24:50;;;;;;;;;10.75;9.50;;;;;-146.67;35.79;76253.19;5065803;28;61875;-79
2024/01/31 10:27:21;;;;;;;;;16.25;14.50;;;;;-146.67;35.89;76253.19;5077891;28;62010;-79
2024/01/31 10:29:48;;;;;;;;;18.25;10.25;;;;;-146.67;35.97;76255.16;5075934;28;63487;-78
2024/01/31 10:32:16;;;;;;;;;15.00;11.00;;;;;-146.67;36.08;76253.19;5078006;27;61914;-79
2024/01/31 10:34:43;;;;;;;;;13.00;12.00;;;;;-146.67;36.36;76251.19;5075901;28;61967;-79
2024/01/31 10:37:10;;;;;;;;;13.00;8.75;;;;;-146.67;36.19;76255.16;5063488;28;61854;-79
2024/01/31 10:39:39;;;;;;;;;9.25;8.00;;;;;-146.67;36.17;76251.19;5065454;28;63821;-79
2024/01/31 10:42:04;;;;;;;;;10.50;10.25;;;;;-146.67;36.24;76259.16;5082813;28;61981;-79
2024/01/31 10:44:32;;;;;;;;;15.25;13.25;;;;;-146.67;36.30;76239.19;5083603;28;62006;-78
2024/01/31 10:46:57;;;;;;;;;31.50;27.00;;;;;-146.67;36.26;76231.22;5084468;28;61787;-79
2024/01/31 10:49:23;;;;;;;;;13.75;12.75;;;;;-146.67;36.19;76217.22;5058860;28;63640;-79
2024/01/31 10:51:52;;;;;;;;;14.50;11.00;;;;;-146.67;36.28;76207.25;5055936;28;62029;-79
2024/01/31 10:54:22;;;;;;;;;14.75;13.00;;;;;-146.67;36.16;76201.25;5080874;27;61803;-78
2024/01/31 10:56:49;;;;;;;;;20.00;12.00;;;;;-146.67;36.00;76189.25;5075096;28;61849;-78
2024/01/31 10:59:16;;;;;;;;;19.00;13.00;;;;;-146.67;36.04;76191.25;5075197;27;61767;-78